Data for 10/11/2005

Time Sea-Level Adjusted Pressure Absolute Pressure Temperature Relative Humidity Dew Point   
(mb) (inHg) (mb) (inHg) (C) (F) (%) (C) (F)
00:05 1018 30.06 848 25.04 3 37.5 71 -1.7 28.9
00:10 1018 30.06 848 25.04 3.2 37.7 69 -1.9 28.5
00:15 1018 30.06 848 25.04 3.1 37.5 70 -1.8 28.7
00:20 1018 30.06 848 25.04 2.8 37.1 70 -2.1 28.2
00:25 1018 30.06 848 25.04 2.9 37.2 70 -2.1 28.2
00:30 1018 30.06 848 25.04 2.8 37 73 -1.6 29.1
00:35 1018 30.06 848 25.04 2.4 36.3 73 -2 28.4
00:40 1018 30.06 848 25.04 2.5 36.6 72 -2.1 28.3
00:45 1018 30.06 848 25.04 2.9 37.1 68 -2.5 27.6
00:50 1018 30.06 847 25.01 2.9 37.3 70 -1.9 28.5
00:55 1018 30.06 847 25.01 2.8 37.1 70 -2.2 28.1
01:00 1018 30.06 847 25.01 3.3 38 63 -3 26.7
01:05 1018 30.06 847 25.01 3.8 38.8 63 -2.7 27.2
01:10 1018 30.06 847 25.01 3.8 38.9 62 -2.7 27.2
01:15 1018 30.06 847 25.01 3.5 38.4 63 -2.8 27
01:20 1018 30.06 847 25.01 3.5 38.4 62 -3.1 26.5
01:25 1018 30.06 847 25.01 3.8 38.9 61 -3 26.7
01:30 1018 30.06 847 25.01 3.6 38.4 65 -2.4 27.7
01:35 1018 30.06 847 25.01 2.6 36.7 68 -2.6 27.3
01:40 1018 30.06 847 25.01 3 37.4 63 -3.3 26
01:45 1018 30.06 847 25.01 3.6 38.4 65 -2.5 27.5
01:50 1018 30.06 847 25.01 2.6 36.7 68 -2.7 27.2
01:55 1018 30.06 847 25.01 3.1 37.5 63 -3.4 25.9
02:00 1018 30.06 847 25.01 3.1 37.7 65 -2.8 26.9
02:05 1018 30.06 847 25.01 2.9 37.3 67 -2.7 27.2
02:10 1018 30.06 847 25.01 2.4 36.4 69 -2.6 27.2
02:15 1018 30.06 847 25.01 2.3 36.1 69 -2.9 26.8
02:20 1018 30.06 847 25.01 2.3 36.1 70 -2.6 27.3
02:25 1018 30.06 847 25.01 2.1 35.7 69 -3.1 26.5
02:30 1018 30.06 847 25.01 2.1 35.8 69 -3.1 26.5
02:35 1018 30.06 847 25.01 2.1 35.7 69 -3 26.5
02:40 1018 30.06 847 25.01 2.1 35.9 68 -3.1 26.5
02:45 1018 30.06 847 25.01 2.1 35.9 68 -3.1 26.4
02:50 1018 30.06 847 25.01 1.9 35.3 71 -2.9 26.9
02:55 1018 30.06 847 25.01 1.6 34.8 71 -3.2 26.3
03:00 1018 30.06 847 25.01 1.4 34.5 71 -3.2 26.2
03:05 1018 30.06 847 25.01 1.5 34.6 71 -3.3 26
03:10 1018 30.06 847 25.01 2 35.7 68 -3.2 26.2
03:15 1018 30.06 847 25.01 2.5 36.5 66 -3.2 26.2
03:20 1018 30.06 847 25.01 2.4 36.3 68 -2.9 26.7
03:25 1018 30.06 847 25.01 2.2 36 67 -3.2 26.2
03:30 1018 30.06 847 25.01 2.2 36 69 -2.9 26.7
03:35 1018 30.06 847 25.01 2.3 36.1 66 -3.5 25.7
03:40 1018 30.06 847 25.01 2.4 36.3 66 -3.4 25.9
03:45 1018 30.06 847 25.01 2.3 36.1 66 -3.3 26
03:50 1018 30.06 847 25.01 2.2 36 67 -3.2 26.2
03:55 1018 30.06 847 25.01 2.2 35.9 69 -3 26.6
04:00 1018 30.06 847 25.01 1.9 35.3 71 -2.9 26.7
04:05 1018 30.06 847 25.01 1.7 35.1 70 -3.2 26.3
04:10 1018 30.06 847 25.01 1.8 35.2 70 -3.2 26.2
04:15 1018 30.06 847 25.01 1.9 35.4 69 -3.2 26.2
04:20 1018 30.06 847 25.01 2 35.6 68 -3.4 25.9
04:25 1018 30.06 847 25.01 1.9 35.4 68 -3.4 25.9
04:30 1018 30.06 847 25.01 2.2 36 65 -3.7 25.4
04:35 1018 30.06 847 25.01 2.5 36.6 64 -3.7 25.4
04:40 1018 30.06 847 25.01 2.6 36.7 64 -3.5 25.6
04:45 1018 30.06 847 25.01 2.7 36.8 63 -3.6 25.5
04:50 1018 30.06 847 25.01 2.8 37 63 -3.6 25.6
04:55 1018 30.06 847 25.01 2.7 36.9 64 -3.4 25.9
05:00 1018 30.06 847 25.01 2.4 36.3 66 -3.3 26.1
05:05 1018 30.06 847 25.01 2.2 35.9 67 -3.4 25.9
05:10 1018 30.06 847 25.01 2.1 35.9 67 -3.3 26.1
05:15 1018 30.06 847 25.01 2.1 35.8 68 -3.2 26.3
05:20 1018 30.06 847 25.01 2.2 35.9 68 -3.1 26.3
05:25 1018 30.06 847 25.01 2.1 35.7 69 -3 26.6
05:30 1018 30.06 847 25.01 1.8 35.3 71 -2.9 26.7
05:35 1018 30.06 847 25.01 1.5 34.6 72 -3 26.5
05:40 1018 30.06 847 25.01 1.3 34.3 74 -3 26.7
05:45 1018 30.06 847 25.01 1.1 34 73 -3.2 26.2
05:50 1018 30.06 847 25.01 1.4 34.5 73 -3 26.6
05:55 1018 30.06 847 25.01 1 33.7 75 -2.9 26.8
06:00 1018 30.06 847 25.01 0.6 33.1 77 -3 26.7
06:05 1018 30.06 847 25.01 1.1 33.9 74 -3.1 26.5
06:10 1018 30.06 847 25.01 1.3 34.3 73 -3 26.7
06:15 1018 30.06 847 25.01 1 33.8 75 -3 26.6
06:20 1018 30.06 847 25.01 0.9 33.6 76 -2.9 26.8
06:25 1018 30.06 847 25.01 0.7 33.2 76 -3.1 26.5
06:30 1018 30.06 847 25.01 0.6 33 76 -3.2 26.3
06:35 1018 30.06 847 25.01 0.5 32.9 77 -3.1 26.4
06:40 1018 30.06 847 25.01 0.3 32.6 78 -3.1 26.5
06:45 1018 30.06 847 25.01 0.5 32.9 75 -3.4 25.9
06:50 1018 30.06 847 25.01 0.9 33.6 75 -3 26.5
06:55 1018 30.06 847 25.01 0.7 33.3 75 -3.2 26.2
07:00 1018 30.06 847 25.01 1.3 34.4 73 -3.1 26.5
07:05 1018 30.06 847 25.01 1.3 34.4 74 -2.8 27
07:10 1018 30.06 847 25.01 1.2 34.2 74 -2.9 26.8
07:15 1018 30.06 847 25.01 1.3 34.3 74 -2.9 26.8
07:20 1018 30.06 847 25.01 1.3 34.4 74 -2.8 26.9
07:25 1018 30.06 847 25.01 1.3 34.3 74 -2.9 26.9
07:30 1018 30.06 847 25.01 1.2 34.1 74 -3 26.7
07:35 1018 30.06 847 25.01 1.3 34.3 73 -3 26.6
07:40 1018 30.06 847 25.01 1.5 34.7 72 -3 26.6
07:45 1018 30.06 847 25.01 1.5 34.8 72 -3 26.6
07:50 1018 30.06 848 25.04 1.5 34.7 73 -2.7 27.1
07:55 1018 30.06 848 25.04 1.1 34.1 74 -3 26.7
08:00 1018 30.06 848 25.04 1.3 34.3 73 -3 26.7
08:05 1018 30.06 848 25.04 1.7 35 71 -3 26.7
08:10 1019 30.09 848 25.04 2 35.6 70 -2.9 26.8
08:15 1019 30.09 848 25.04 2.2 36 69 -2.8 26.9
08:20 1019 30.09 848 25.04 2.4 36.4 69 -2.6 27.3
08:25 1019 30.09 848 25.04 2.7 36.9 67 -2.8 26.9
08:30 1019 30.09 848 25.04 3.1 37.5 67 -2.4 27.6
08:35 1019 30.09 848 25.04 3 37.5 67 -2.4 27.6
08:40 1019 30.09 848 25.04 3.1 37.6 68 -2.3 27.9
08:45 1019 30.09 848 25.04 3.2 37.7 67 -2.3 27.8
08:50 1019 30.09 848 25.04 3.2 37.8 68 -2.2 28.1
08:55 1019 30.09 848 25.04 3.2 37.7 69 -2.1 28.3
09:00 1019 30.09 848 25.04 3.1 37.6 69 -2.1 28.2
09:05 1019 30.09 848 25.04 3.2 37.8 67 -2.3 27.9
09:10 1019 30.09 848 25.04 3.6 38.4 66 -2.1 28.2
09:15 1019 30.09 848 25.04 3.8 38.9 65 -2.1 28.3
09:20 1019 30.09 848 25.04 4 39.3 65 -1.9 28.6
09:25 1019 30.09 848 25.04 4.1 39.3 64 -2.1 28.1
09:30 1019 30.09 848 25.04 4.3 39.7 63 -2.1 28.3
09:35 1019 30.09 848 25.04 4.4 40 63 -2 28.3
09:40 1019 30.09 848 25.04 4.7 40.5 63 -1.7 29
09:45 1019 30.09 848 25.04 4.8 40.7 63 -1.7 29
09:50 1019 30.09 848 25.04 4.9 40.8 63 -1.5 29.3
09:55 1019 30.09 848 25.04 5.2 41.3 62 -1.4 29.4
10:00 1019 30.09 848 25.04 5.3 41.6 62 -1.4 29.6
10:05 1019 30.09 848 25.04 5.3 41.6 62 -1.4 29.4
10:10 1019 30.09 848 25.04 5.5 41.9 62 -1.1 30
10:15 1019 30.09 848 25.04 5.6 42.1 61 -1.2 29.9
10:20 1019 30.09 848 25.04 5.7 42.3 62 -0.9 30.4
10:25 1019 30.09 848 25.04 6 42.7 62 -0.8 30.5
10:30 1019 30.09 848 25.04 5.9 42.7 60 -1.2 29.8
10:35 1019 30.09 848 25.04 6.3 43.4 58 -1.2 29.8
10:40 1019 30.09 848 25.04 6.7 44.1 57 -1.3 29.7
10:45 1019 30.09 848 25.04 6.9 44.5 55 -1.5 29.4
10:50 1019 30.09 848 25.04 7.1 44.8 55 -1.3 29.7
10:55 1019 30.09 848 25.04 7.5 45.4 55 -1 30.2
11:00 1019 30.09 848 25.04 8 46.4 53 -1 30.1
11:05 1019 30.09 848 25.04 8.5 47.4 51 -1 30.2
11:10 1019 30.09 848 25.04 9.3 48.7 49 -0.9 30.4
11:15 1019 30.09 848 25.04 9.6 49.3 47 -1 30.2
11:20 1019 30.09 848 25.04 9.9 49.8 47 -1 30.2
11:25 1019 30.09 848 25.04 10.2 50.4 45 -1.1 30.1
11:30 1019 30.09 848 25.04 10.6 51 44 -1 30.2
11:35 1019 30.09 848 25.04 10.7 51.2 44 -1.1 29.9
11:40 1019 30.09 848 25.04 10.7 51.3 44 -1 30.1
11:45 1019 30.09 848 25.04 10.7 51.3 43 -1.4 29.5
11:50 1019 30.09 848 25.04 10.5 50.9 44 -1.2 29.8
11:55 1019 30.09 848 25.04 10.2 50.4 45 -1.2 29.9
12:00 1019 30.09 848 25.04 10.1 50.3 47 -0.6 31
12:05 1019 30.09 848 25.04 10.8 51.5 47 -0.1 31.8
12:10 1019 30.09 848 25.04 11.3 52.4 45 0 32
12:15 1019 30.09 848 25.04 11.3 52.4 46 0.2 32.4
12:20 1019 30.09 848 25.04 11.6 52.9 45 0.1 32.3
12:25 1019 30.09 848 25.04 11.1 52 48 0.7 33.2
12:30 1019 30.09 848 25.04 11.2 52.1 46 -0 32
12:35 1019 30.09 848 25.04 12.2 53.9 43 0.1 32.1
12:40 1019 30.09 848 25.04 12.9 55.3 40 -0.3 31.5
12:45 1019 30.09 848 25.04 13.6 56.5 39 -0.1 31.8
12:50 1019 30.09 848 25.04 13.7 56.6 38 -0.2 31.7
12:55 1019 30.09 848 25.04 13.4 56.1 39 -0.4 31.3
13:00 1019 30.09 848 25.04 13.7 56.7 36 -1.2 29.9
13:05 1019 30.09 848 25.04 14.2 57.6 35 -1 30.2
13:10 1018 30.06 848 25.04 14.6 58.2 35 -0.8 30.6
13:15 1018 30.06 848 25.04 14.8 58.6 34 -0.8 30.5
13:20 1018 30.06 848 25.04 14.7 58.4 35 -0.4 31.3
13:25 1018 30.06 848 25.04 14.9 58.8 34 -0.9 30.4
13:30 1018 30.06 848 25.04 15.1 59.2 34 -0.4 31.2
13:35 1018 30.06 848 25.04 14.6 58.3 31 -2.1 28.2
13:40 1018 30.06 848 25.04 14.7 58.5 32 -1.9 28.7
13:45 1018 30.06 848 25.04 15.1 59.1 30 -2.2 28
13:50 1018 30.06 847 25.01 15.2 59.3 32 -1.5 29.4
13:55 1018 30.06 847 25.01 14.9 58.8 31 -2.1 28.1
14:00 1018 30.06 847 25.01 14.7 58.5 29 -3.1 26.5
14:05 1018 30.06 847 25.01 14.6 58.3 32 -1.9 28.6
14:10 1018 30.06 847 25.01 14.4 57.8 32 -2 28.5
14:15 1018 30.06 847 25.01 14.2 57.6 33 -1.9 28.6
14:20 1018 30.06 847 25.01 14.3 57.8 32 -2.2 28.1
14:25 1018 30.06 847 25.01 14.4 57.9 34 -1.4 29.5
14:30 1018 30.06 847 25.01 14.4 57.9 34 -1.2 29.9
14:35 1018 30.06 847 25.01 14.2 57.6 33 -1.6 29.1
14:40 1018 30.06 847 25.01 14.1 57.3 33 -2 28.5
14:45 1018 30.06 847 25.01 14 57.2 33 -1.8 28.8
14:50 1018 30.06 847 25.01 14 57.2 34 -1.5 29.3
14:55 1018 30.06 848 25.04 13.9 57 34 -1.8 28.7
15:00 1018 30.06 848 25.04 13.9 57 34 -1.5 29.3
15:05 1018 30.06 848 25.04 14 57.1 34 -1.5 29.2
15:10 1018 30.06 848 25.04 14 57.3 33 -2 28.4
15:15 1018 30.06 848 25.04 14 57.2 33 -2.1 28.3
15:20 1018 30.06 848 25.04 14.1 57.3 33 -2 28.3
15:25 1018 30.06 848 25.04 14.2 57.6 33 -1.9 28.6
15:30 1018 30.06 848 25.04 14.2 57.6 34 -1.5 29.3
15:35 1018 30.06 848 25.04 14 57.3 35 -1.2 29.8
15:40 1018 30.06 848 25.04 13.6 56.4 34 -1.8 28.7
15:45 1018 30.06 848 25.04 13.4 56.1 35 -1.8 28.8
15:50 1019 30.09 848 25.04 13.4 56.1 36 -1.3 29.6
15:55 1019 30.09 848 25.04 13.4 56.2 36 -1.2 29.9
16:00 1019 30.09 848 25.04 13.2 55.8 37 -1 30.2
16:05 1019 30.09 848 25.04 13.3 55.9 37 -0.9 30.5
16:10 1019 30.09 848 25.04 13.3 55.9 37 -1.1 30
16:15 1019 30.09 848 25.04 13.3 56 36 -1.5 29.3
16:20 1019 30.09 848 25.04 13.1 55.6 34 -2.2 28.1
16:25 1019 30.09 848 25.04 12.8 55 35 -2.3 27.8
16:30 1019 30.09 848 25.04 12.8 55 34 -2.7 27.2
16:35 1019 30.09 848 25.04 12.7 54.8 35 -2.2 28.1
16:40 1019 30.09 848 25.04 12.7 54.9 37 -1.5 29.3
16:45 1019 30.09 848 25.04 12.8 55 37 -1.4 29.6
16:50 1019 30.09 848 25.04 12.8 55 37 -1.4 29.6
16:55 1019 30.09 848 25.04 12.8 55.1 37 -1.3 29.6
17:00 1019 30.09 848 25.04 13.1 55.5 36 -1.6 29.2
17:05 1019 30.09 848 25.04 12.9 55.2 38 -0.9 30.3
17:10 1019 30.09 848 25.04 12.7 54.9 39 -0.8 30.5
17:15 1019 30.09 848 25.04 12.8 55 38 -1.2 29.8
17:20 1019 30.09 848 25.04 12.7 54.8 37 -1.5 29.3
17:25 1019 30.09 848 25.04 12.3 54.1 39 -1.3 29.7
17:30 1019 30.09 848 25.04 12.2 54 39 -1.3 29.7
17:35 1019 30.09 848 25.04 12.3 54.1 38 -1.4 29.4
17:40 1019 30.09 848 25.04 12.4 54.3 39 -1.1 30
17:45 1019 30.09 848 25.04 12.4 54.3 39 -1 30.2
17:50 1019 30.09 849 25.07 12.2 54 38 -1.5 29.2
17:55 1019 30.09 849 25.07 12.2 53.9 39 -1.4 29.5
18:00 1019 30.09 849 25.07 12.2 54 39 -1.3 29.6
18:05 1019 30.09 849 25.07 12.1 53.8 41 -0.8 30.6
18:10 1020 30.12 849 25.07 12 53.6 45 0.4 32.8
18:15 1020 30.12 849 25.07 11.9 53.3 46 0.5 32.9
18:20 1020 30.12 849 25.07 11.7 53 47 0.7 33.2
18:25 1020 30.12 849 25.07 11.6 52.8 46 0.5 33
18:30 1020 30.12 849 25.07 11.5 52.6 47 0.7 33.3
18:35 1020 30.12 849 25.07 11.4 52.5 49 1 33.8
18:40 1020 30.12 849 25.07 11.3 52.3 50 1.2 34.2
18:45 1020 30.12 849 25.07 11.2 52.1 52 1.8 35.2
18:50 1020 30.12 849 25.07 11 51.7 54 2 35.7
18:55 1020 30.12 849 25.07 10.8 51.4 53 1.6 34.8
19:00 1020 30.12 849 25.07 10.8 51.4 53 1.6 34.8
19:05 1020 30.12 849 25.07 10.7 51.3 53 1.5 34.6
19:10 1020 30.12 849 25.07 10.7 51.2 52 1.3 34.3
19:15 1020 30.12 849 25.07 10.6 51.1 51 1 33.9
19:20 1020 30.12 849 25.07 10.5 51 52 1.1 33.9
19:25 1020 30.12 849 25.07 10.5 50.9 53 1.3 34.4
19:30 1020 30.12 850 25.1 10.4 50.7 54 1.5 34.8
19:35 1020 30.12 850 25.1 10.4 50.6 54 1.5 34.7
19:40 1020 30.12 850 25.1 10.2 50.4 55 1.6 34.9
19:45 1021 30.15 850 25.1 10.1 50.2 55 1.6 34.9
19:50 1021 30.15 850 25.1 10.1 50.2 55 1.5 34.6
19:55 1021 30.15 850 25.1 10.2 50.4 55 1.6 34.8
20:00 1021 30.15 850 25.1 10.2 50.3 56 1.7 35.1
20:05 1021 30.15 850 25.1 10.1 50.2 56 1.8 35.2
20:10 1021 30.15 850 25.1 9.9 49.9 57 1.8 35.3
20:15 1021 30.15 850 25.1 9.9 49.8 58 2 35.6
20:20 1021 30.15 850 25.1 9.8 49.6 59 2.1 35.8
20:25 1021 30.15 850 25.1 9.7 49.4 60 2.3 36.2
20:30 1021 30.15 850 25.1 9.4 49 62 2.5 36.4
20:35 1021 30.15 850 25.1 9.3 48.8 62 2.6 36.6
20:40 1021 30.15 850 25.1 9.2 48.6 63 2.7 36.8
20:45 1021 30.15 850 25.1 9.3 48.7 64 2.7 36.9
20:50 1021 30.15 850 25.1 9.3 48.7 65 3 37.4
20:55 1021 30.15 850 25.1 9.1 48.4 66 3.1 37.5
21:00 1021 30.15 851 25.13 9.1 48.3 66 3.1 37.6
21:05 1021 30.15 851 25.13 9 48.3 67 3.4 38
21:10 1021 30.15 851 25.13 9 48.2 69 3.7 38.6
21:15 1021 30.15 851 25.13 8.8 47.9 71 3.8 38.8
21:20 1022 30.18 851 25.13 8.8 47.8 71 3.9 39
21:25 1022 30.18 851 25.13 8.6 47.5 73 4.1 39.3
21:30 1022 30.18 851 25.13 8.6 47.4 73 4 39.3
21:35 1022 30.18 851 25.13 8.5 47.2 74 4.1 39.5
21:40 1022 30.18 851 25.13 8.4 47.1 75 4.2 39.6
21:45 1022 30.18 851 25.13 8.4 47.1 75 4.2 39.6
21:50 1022 30.18 851 25.13 8.3 47 75 4.1 39.5
21:55 1022 30.18 851 25.13 8.3 46.9 76 4.4 39.8
22:00 1022 30.18 851 25.13 8.2 46.8 77 4.4 39.8
22:05 1022 30.18 851 25.13 8.2 46.7 77 4.4 39.8
22:10 1022 30.18 851 25.13 8.1 46.6 78 4.5 40
22:15 1022 30.18 851 25.13 8.1 46.5 78 4.5 40.2
22:20 1022 30.18 851 25.13 8 46.5 79 4.7 40.5
22:25 1022 30.18 851 25.13 8 46.3 81 4.9 40.8
22:30 1022 30.18 851 25.13 7.9 46.1 81 4.9 40.8
22:35 1022 30.18 851 25.13 7.7 45.9 83 5 41
22:40 1022 30.18 851 25.13 7.6 45.7 83 5 40.9
22:45 1022 30.18 851 25.13 7.6 45.6 85 5.3 41.5
22:50 1022 30.18 851 25.13 7.6 45.6 85 5.3 41.5
22:55 1022 30.18 851 25.13 7.5 45.5 86 5.4 41.7
23:00 1022 30.18 851 25.13 7.4 45.4 87 5.4 41.8
23:05 1022 30.18 851 25.13 7.4 45.3 88 5.5 41.9
23:10 1022 30.18 851 25.13 7.4 45.2 88 5.5 41.9
23:15 1022 30.18 852 25.16 7.3 45.1 88 5.5 41.9
23:20 1022 30.18 852 25.16 7.2 44.9 88 5.4 41.6
23:25 1022 30.18 852 25.16 7.2 44.9 89 5.5 42
23:30 1022 30.18 852 25.16 7.2 44.9 90 5.7 42.2
23:35 1022 30.18 852 25.16 7.1 44.8 90 5.6 42.1
23:40 1022 30.18 852 25.16 7 44.7 90 5.6 42
23:45 1022 30.18 852 25.16 7 44.6 91 5.6 42.1
23:50 1022 30.18 852 25.16 7 44.6 90 5.5 41.9
23:55 1022 30.18 852 25.16 7 44.7 89 5.4 41.7
24:00 1023 30.21 852 25.16 7 44.7 89 5.4 41.7